createdAt,value
2019-03-03T00:00:47.911Z,9.83
2019-03-03T00:03:20.602Z,9.87
2019-03-03T00:05:52.340Z,9.86
2019-03-03T00:08:24.751Z,9.87
2019-03-03T00:10:56.384Z,9.91
2019-03-03T00:13:27.991Z,9.88
2019-03-03T00:15:59.553Z,9.82
2019-03-03T00:18:31.156Z,9.86
2019-03-03T00:21:13.660Z,9.86
2019-03-03T00:23:46.842Z,9.84
2019-03-03T00:26:18.419Z,9.86
2019-03-03T00:28:50.024Z,9.84
2019-03-03T00:31:42.807Z,9.81
2019-03-03T00:34:14.387Z,9.80
2019-03-03T00:37:17.102Z,9.79
2019-03-03T00:40:04.698Z,9.72
2019-03-03T00:42:51.820Z,9.70
2019-03-03T00:45:36.889Z,9.71
2019-03-03T00:48:39.479Z,9.76
2019-03-03T00:51:24.100Z,9.76
2019-03-03T00:54:28.306Z,9.81
2019-03-03T00:57:25.028Z,9.83
2019-03-03T01:00:07.192Z,9.88
2019-03-03T01:02:54.552Z,9.97
2019-03-03T01:05:48.072Z,10.00
2019-03-03T01:08:41.277Z,10.07
2019-03-03T01:11:20.484Z,10.08
2019-03-03T01:14:08.913Z,10.05
2019-03-03T01:17:05.320Z,9.97
2019-03-03T01:19:59.693Z,9.98
2019-03-03T01:22:50.170Z,9.94
2019-03-03T01:25:21.723Z,9.96
2019-03-03T01:27:54.377Z,9.86
2019-03-03T01:30:25.940Z,9.88
2019-03-03T01:32:57.524Z,9.83
2019-03-03T01:35:29.081Z,9.86
2019-03-03T01:38:00.634Z,9.78
2019-03-03T01:40:32.179Z,9.74
2019-03-03T01:43:03.806Z,9.74
2019-03-03T01:45:35.367Z,9.75
2019-03-03T01:48:06.966Z,9.77
2019-03-03T01:50:38.512Z,9.75
2019-03-03T01:53:10.132Z,9.78
2019-03-03T01:55:41.681Z,9.71
2019-03-03T01:58:13.250Z,9.70
2019-03-03T02:00:45.014Z,9.69
2019-03-03T02:03:17.831Z,9.66
2019-03-03T02:05:49.362Z,9.69
2019-03-03T02:08:21.041Z,9.65
2019-03-03T02:10:52.730Z,9.65
2019-03-03T02:13:24.568Z,9.65
2019-03-03T02:15:56.117Z,9.71
2019-03-03T02:18:29.566Z,9.65
2019-03-03T02:21:01.100Z,9.72
2019-03-03T02:23:35.405Z,9.74
2019-03-03T02:26:07.220Z,9.80
2019-03-03T02:28:42.357Z,9.74
2019-03-03T02:31:15.011Z,9.79
2019-03-03T02:33:50.767Z,9.84
2019-03-03T02:36:25.035Z,9.83
2019-03-03T02:38:56.909Z,9.85
2019-03-03T02:41:30.138Z,9.84
2019-03-03T02:44:01.700Z,9.79
2019-03-03T02:46:36.038Z,9.71
2019-03-03T02:49:07.581Z,9.74
2019-03-03T02:51:39.178Z,9.74
2019-03-03T02:54:12.028Z,9.69
2019-03-03T02:56:46.330Z,9.75
2019-03-03T02:59:20.860Z,9.75
2019-03-03T03:01:56.315Z,9.75
2019-03-03T03:04:31.820Z,9.73
2019-03-03T03:07:32.713Z,9.71
2019-03-03T03:10:18.370Z,9.77
2019-03-03T03:12:57.785Z,9.75
2019-03-03T03:15:55.207Z,9.77
2019-03-03T03:18:34.463Z,9.72
2019-03-03T03:21:27.695Z,9.69
2019-03-03T03:24:15.057Z,9.74
2019-03-03T03:27:08.511Z,9.77
2019-03-03T03:30:03.690Z,9.73
2019-03-03T03:32:55.582Z,9.69
2019-03-03T03:35:38.702Z,9.67
2019-03-03T03:38:37.690Z,9.63
2019-03-03T03:41:34.135Z,9.64
2019-03-03T03:44:38.981Z,9.65
2019-03-03T03:47:28.819Z,9.64
2019-03-03T03:50:18.659Z,9.66
2019-03-03T03:53:09.120Z,9.68
2019-03-03T03:55:54.924Z,9.68
2019-03-03T03:58:51.425Z,9.70
2019-03-03T04:01:49.656Z,9.75
2019-03-03T04:04:39.708Z,9.79
2019-03-03T04:07:44.178Z,9.73
2019-03-03T04:10:23.458Z,9.79
2019-03-03T04:13:11.757Z,9.79
2019-03-03T04:16:01.090Z,9.79
2019-03-03T04:19:02.773Z,9.83
2019-03-03T04:21:51.805Z,9.86
2019-03-03T04:24:42.416Z,9.75
2019-03-03T04:27:30.165Z,9.69
2019-03-03T04:30:16.732Z,9.68
2019-03-03T04:33:06.432Z,9.68
2019-03-03T04:36:12.003Z,9.74
2019-03-03T04:39:07.114Z,9.73
2019-03-03T04:42:01.048Z,9.63
2019-03-03T04:45:00.823Z,9.64
2019-03-03T04:47:42.303Z,9.64
2019-03-03T04:50:32.763Z,9.63
2019-03-03T04:53:20.853Z,9.61
2019-03-03T04:56:06.593Z,9.65
2019-03-03T04:58:54.229Z,9.68
2019-03-03T05:01:43.574Z,9.71
2019-03-03T05:04:36.748Z,9.75
2019-03-03T05:07:25.821Z,9.76
2019-03-03T05:10:19.273Z,9.75
2019-03-03T05:13:15.948Z,9.69
2019-03-03T05:16:18.782Z,9.70
2019-03-03T05:19:00.669Z,9.62
2019-03-03T05:21:32.215Z,9.65
2019-03-03T05:24:04.737Z,9.60
2019-03-03T05:26:36.271Z,9.63
2019-03-03T05:29:07.826Z,9.63
2019-03-03T05:31:39.372Z,9.64
2019-03-03T05:34:10.928Z,9.58
2019-03-03T05:36:42.471Z,9.57
2019-03-03T05:39:14.040Z,9.52
2019-03-03T05:41:45.556Z,9.51
2019-03-03T05:44:17.127Z,9.56
2019-03-03T05:46:51.811Z,9.55
2019-03-03T05:49:23.397Z,9.60
2019-03-03T05:51:56.399Z,9.66
2019-03-03T05:54:29.559Z,9.69
2019-03-03T05:57:01.098Z,9.72
2019-03-03T05:59:32.680Z,9.73
2019-03-03T06:02:04.217Z,9.66
2019-03-03T06:04:35.779Z,9.67
2019-03-03T06:07:07.314Z,9.65
2019-03-03T06:09:38.870Z,9.72
2019-03-03T06:12:10.675Z,9.72
2019-03-03T06:14:42.218Z,9.71
2019-03-03T06:17:13.763Z,9.75
2019-03-03T06:19:45.335Z,9.73
2019-03-03T06:22:16.869Z,9.79
2019-03-03T06:24:48.449Z,9.78
2019-03-03T06:27:20.009Z,9.83
2019-03-03T06:29:51.564Z,9.82
2019-03-03T06:32:24.859Z,9.86
2019-03-03T06:34:56.438Z,9.93
2019-03-03T06:37:28.017Z,9.93
2019-03-03T06:39:59.550Z,9.96
2019-03-03T06:42:31.112Z,9.97
2019-03-03T06:45:04.709Z,10.00
2019-03-03T06:47:36.263Z,9.95
2019-03-03T06:50:10.502Z,10.03
2019-03-03T06:52:42.078Z,10.03
2019-03-03T06:55:14.941Z,10.04
2019-03-03T06:57:46.512Z,10.02
2019-03-03T07:00:18.732Z,10.08
2019-03-03T07:02:50.326Z,10.10
2019-03-03T07:05:21.865Z,10.10
2019-03-03T07:07:53.459Z,10.12
2019-03-03T07:10:25.011Z,10.12
2019-03-03T07:12:56.580Z,10.10
2019-03-03T07:15:28.150Z,10.14
2019-03-03T07:18:03.520Z,10.12
2019-03-03T07:20:35.101Z,10.07
2019-03-03T07:23:06.683Z,10.14
2019-03-03T07:25:38.233Z,10.10
2019-03-03T07:28:09.812Z,10.09
2019-03-03T07:30:43.269Z,10.07
2019-03-03T07:33:16.937Z,10.10
2019-03-03T07:35:48.492Z,10.09
2019-03-03T07:38:21.033Z,10.07
2019-03-03T07:40:52.595Z,10.11
2019-03-03T07:43:24.186Z,10.11
2019-03-03T07:45:55.766Z,10.10
2019-03-03T07:48:27.335Z,10.14
2019-03-03T07:50:58.917Z,10.11
2019-03-03T07:53:31.557Z,10.14
2019-03-03T07:56:06.270Z,10.12
2019-03-03T07:58:37.843Z,10.08
2019-03-03T08:01:09.427Z,10.10
2019-03-03T08:03:42.753Z,10.11
2019-03-03T08:06:16.627Z,10.15
2019-03-03T08:08:49.397Z,10.14
2019-03-03T08:11:21.943Z,10.14
2019-03-03T08:13:53.526Z,10.16
2019-03-03T08:16:25.093Z,10.13
2019-03-03T08:18:57.855Z,10.19
2019-03-03T08:21:33.812Z,10.23
2019-03-03T08:24:08.405Z,10.21
2019-03-03T08:26:41.631Z,10.26
2019-03-03T08:29:15.528Z,10.27
2019-03-03T08:31:49.490Z,10.31
2019-03-03T08:34:21.015Z,10.29
2019-03-03T08:36:52.730Z,10.33
2019-03-03T08:39:25.442Z,10.37
2019-03-03T08:42:18.643Z,10.38
2019-03-03T08:45:09.102Z,10.37
2019-03-03T08:47:53.108Z,10.43
2019-03-03T08:50:36.332Z,10.43
2019-03-03T08:53:29.520Z,10.45
2019-03-03T08:56:25.850Z,10.49
2019-03-03T08:59:09.104Z,10.52
2019-03-03T09:01:59.686Z,10.57
2019-03-03T09:04:51.244Z,10.62
2019-03-03T09:07:45.791Z,10.74
2019-03-03T09:10:38.749Z,10.70
2019-03-03T09:13:35.457Z,10.75
2019-03-03T09:16:16.839Z,10.87
2019-03-03T09:19:19.144Z,10.95
2019-03-03T09:22:05.799Z,11.06
2019-03-03T09:25:11.542Z,11.10
2019-03-03T09:28:04.807Z,11.01
2019-03-03T09:31:07.738Z,11.01
2019-03-03T09:34:04.068Z,11.03
2019-03-03T09:36:45.571Z,10.96
2019-03-03T09:39:41.076Z,11.04
2019-03-03T09:42:44.477Z,11.10
2019-03-03T09:45:37.730Z,11.07
2019-03-03T09:48:48.396Z,11.07
2019-03-03T09:51:37.536Z,11.04
2019-03-03T09:54:35.191Z,11.06
2019-03-03T09:57:26.152Z,11.01
2019-03-03T10:00:15.391Z,11.01
2019-03-03T10:03:21.298Z,11.04
2019-03-03T10:06:15.192Z,11.06
2019-03-03T10:09:04.578Z,11.10
2019-03-03T10:11:44.358Z,11.14
2019-03-03T10:14:35.932Z,11.12
2019-03-03T10:17:31.603Z,11.13
2019-03-03T10:20:22.061Z,11.25
2019-03-03T10:23:27.704Z,11.18
2019-03-03T10:26:11.867Z,11.29
2019-03-03T10:29:02.601Z,11.35
2019-03-03T10:31:44.266Z,11.39
2019-03-03T10:34:32.711Z,11.52
2019-03-03T10:37:20.137Z,11.55
2019-03-03T10:40:19.838Z,11.59
2019-03-03T10:43:10.712Z,11.64
2019-03-03T10:46:04.347Z,11.59
2019-03-03T10:48:50.788Z,11.56
2019-03-03T10:51:35.790Z,11.58
2019-03-03T10:54:14.606Z,11.59
2019-03-03T10:57:11.548Z,11.58
2019-03-03T11:00:04.637Z,11.63
2019-03-03T11:02:52.025Z,11.69
2019-03-03T11:05:44.687Z,11.69
2019-03-03T11:08:34.966Z,11.74
2019-03-03T11:11:21.767Z,11.79
2019-03-03T11:14:19.569Z,11.94
2019-03-03T11:17:11.946Z,11.87
2019-03-03T11:19:56.744Z,11.76
2019-03-03T11:22:38.751Z,11.77
2019-03-03T11:25:21.157Z,11.87
2019-03-03T11:28:03.747Z,11.97
2019-03-03T11:30:58.319Z,11.99
2019-03-03T11:33:47.658Z,12.02
2019-03-03T11:36:40.923Z,12.14
2019-03-03T11:39:37.315Z,12.12
2019-03-03T11:42:23.253Z,12.13
2019-03-03T11:45:14.749Z,12.20
2019-03-03T11:48:11.433Z,12.22
2019-03-03T11:51:04.762Z,12.11
2019-03-03T11:53:51.879Z,12.26
2019-03-03T11:56:54.751Z,12.21
2019-03-03T11:59:48.586Z,12.22
2019-03-03T12:02:54.339Z,12.33
2019-03-03T12:05:54.908Z,12.36
2019-03-03T12:09:00.658Z,12.25
2019-03-03T12:11:58.713Z,12.36
2019-03-03T12:15:04.668Z,12.32
2019-03-03T12:17:59.501Z,12.23
2019-03-03T12:20:56.162Z,12.35
2019-03-03T12:23:52.913Z,12.45
2019-03-03T12:26:44.724Z,12.31
2019-03-03T12:29:30.295Z,12.35
2019-03-03T12:32:19.492Z,12.28
2019-03-03T12:34:59.699Z,12.26
2019-03-03T12:37:50.171Z,12.26
2019-03-03T12:40:43.482Z,12.35
2019-03-03T12:43:30.238Z,12.27
2019-03-03T12:46:09.944Z,12.31
2019-03-03T12:48:56.457Z,12.31
2019-03-03T12:51:43.248Z,12.32
2019-03-03T12:54:32.556Z,12.36
2019-03-03T12:57:26.072Z,12.44
2019-03-03T13:00:19.328Z,12.50
2019-03-03T13:03:07.584Z,12.60
2019-03-03T13:05:53.264Z,12.66
2019-03-03T13:08:43.632Z,12.86
2019-03-03T13:11:35.197Z,12.97
2019-03-03T13:14:24.475Z,13.10
2019-03-03T13:17:13.884Z,13.08
2019-03-03T13:20:03.214Z,13.05
2019-03-03T13:22:42.911Z,13.15
2019-03-03T13:25:33.667Z,13.11
2019-03-03T13:28:21.225Z,13.07
2019-03-03T13:31:22.320Z,12.96
2019-03-03T13:34:13.004Z,12.86
2019-03-03T13:36:56.282Z,12.84
2019-03-03T13:39:45.668Z,13.04
2019-03-03T13:42:35.224Z,13.07
2019-03-03T13:45:11.315Z,13.00
2019-03-03T13:47:43.019Z,12.97
2019-03-03T13:50:16.482Z,12.90
2019-03-03T13:52:49.966Z,12.84
2019-03-03T13:55:22.884Z,12.88
2019-03-03T13:57:54.433Z,12.75
2019-03-03T14:00:28.434Z,12.71
2019-03-03T14:03:05.817Z,12.71
2019-03-03T14:05:40.250Z,12.72
2019-03-03T14:08:14.680Z,12.75
2019-03-03T14:10:46.263Z,12.74
2019-03-03T14:13:17.837Z,12.70
2019-03-03T14:15:49.485Z,12.60
2019-03-03T14:18:23.939Z,12.61
2019-03-03T14:20:57.653Z,12.62
2019-03-03T14:23:29.247Z,12.64
2019-03-03T14:26:01.921Z,12.63
2019-03-03T14:28:33.561Z,12.66
2019-03-03T14:31:08.074Z,12.62
2019-03-03T14:33:41.902Z,12.62
2019-03-03T14:36:21.621Z,12.73
2019-03-03T14:38:55.512Z,12.75
2019-03-03T14:41:27.116Z,12.86
2019-03-03T14:43:58.968Z,12.92
2019-03-03T14:46:31.898Z,12.84
2019-03-03T14:49:05.138Z,12.93
2019-03-03T14:51:38.240Z,12.98
2019-03-03T14:54:10.136Z,12.99
2019-03-03T14:56:47.339Z,13.00
2019-03-03T14:59:21.398Z,13.02
2019-03-03T15:01:54.880Z,13.02
2019-03-03T15:04:29.435Z,13.09
2019-03-03T15:06:59.974Z,13.07
2019-03-03T15:09:31.783Z,13.08
2019-03-03T15:12:03.451Z,13.03
2019-03-03T15:14:35.111Z,13.06
2019-03-03T15:17:08.139Z,13.06
2019-03-03T15:19:39.760Z,13.07
2019-03-03T15:22:11.398Z,13.13
2019-03-03T15:24:43.020Z,13.21
2019-03-03T15:27:16.676Z,13.24
2019-03-03T15:29:55.261Z,13.23
2019-03-03T15:32:27.238Z,13.23
2019-03-03T15:34:59.236Z,13.23
2019-03-03T15:37:33.894Z,13.11
2019-03-03T15:40:07.079Z,13.10
2019-03-03T15:42:42.750Z,13.11
2019-03-03T15:45:23.637Z,13.10
2019-03-03T15:47:58.419Z,13.06
2019-03-03T15:50:33.100Z,13.06
2019-03-03T15:53:04.729Z,13.06
2019-03-03T15:55:38.835Z,13.03
2019-03-03T15:58:10.435Z,13.00
2019-03-03T16:00:42.179Z,12.98
2019-03-03T16:03:13.852Z,12.89
2019-03-03T16:05:47.076Z,12.89
2019-03-03T16:08:21.332Z,12.85
2019-03-03T16:10:52.986Z,12.86
2019-03-03T16:13:25.632Z,12.91
2019-03-03T16:16:01.647Z,12.88
2019-03-03T16:18:35.789Z,12.90
2019-03-03T16:21:10.154Z,12.92
2019-03-03T16:23:41.747Z,12.89
2019-03-03T16:26:16.401Z,12.84
2019-03-03T16:28:47.989Z,12.82
2019-03-03T16:31:23.958Z,12.83
2019-03-03T16:34:01.501Z,12.77
2019-03-03T16:36:34.710Z,12.72
2019-03-03T16:39:08.118Z,12.68
2019-03-03T16:41:40.237Z,12.58
2019-03-03T16:44:11.838Z,12.56
2019-03-03T16:46:43.521Z,12.56
2019-03-03T16:49:16.950Z,12.58
2019-03-03T16:51:48.549Z,12.53
2019-03-03T16:54:20.153Z,12.53
2019-03-03T16:56:51.733Z,12.46
2019-03-03T16:59:25.228Z,12.46
2019-03-03T17:01:56.843Z,12.45
2019-03-03T17:04:28.488Z,12.44
2019-03-03T17:07:01.694Z,12.43
2019-03-03T17:09:33.277Z,12.38
2019-03-03T17:12:06.034Z,12.36
2019-03-03T17:14:37.883Z,12.40
2019-03-03T17:17:10.738Z,12.44
2019-03-03T17:19:44.939Z,12.48
2019-03-03T17:22:15.629Z,12.55
2019-03-03T17:24:48.941Z,12.58
2019-03-03T17:27:23.352Z,12.59
2019-03-03T17:29:54.901Z,12.63
2019-03-03T17:32:26.489Z,12.61
2019-03-03T17:35:04.130Z,12.58
2019-03-03T17:37:37.375Z,12.60
2019-03-03T17:40:12.242Z,12.59
2019-03-03T17:42:43.867Z,12.58
2019-03-03T17:45:18.176Z,12.54
2019-03-03T17:47:51.161Z,12.45
2019-03-03T17:50:23.146Z,12.39
2019-03-03T17:52:54.739Z,12.40
2019-03-03T17:55:26.329Z,12.35
2019-03-03T17:57:57.965Z,12.29
2019-03-03T18:00:31.311Z,12.34
2019-03-03T18:03:02.903Z,12.35
2019-03-03T18:05:34.600Z,12.34
2019-03-03T18:08:06.152Z,12.27
2019-03-03T18:10:37.752Z,12.18
2019-03-03T18:13:12.351Z,12.14
2019-03-03T18:15:44.002Z,12.12
2019-03-03T18:18:18.603Z,12.05
2019-03-03T18:20:50.176Z,12.09
2019-03-03T18:23:23.394Z,12.06
2019-03-03T18:25:54.982Z,11.97
2019-03-03T18:28:26.616Z,11.87
2019-03-03T18:30:58.270Z,11.85
2019-03-03T18:33:29.862Z,11.85
2019-03-03T18:36:01.466Z,11.86
2019-03-03T18:38:33.043Z,11.82
2019-03-03T18:41:06.707Z,11.88
2019-03-03T18:43:44.788Z,11.88
2019-03-03T18:46:20.341Z,11.78
2019-03-03T18:48:53.104Z,11.73
2019-03-03T18:51:24.705Z,11.69
2019-03-03T18:53:58.112Z,11.62
2019-03-03T18:56:29.703Z,11.61
2019-03-03T18:59:01.276Z,11.49
2019-03-03T19:01:32.842Z,11.43
2019-03-03T19:04:04.465Z,11.46
2019-03-03T19:06:42.029Z,11.44
2019-03-03T19:09:19.342Z,11.44
2019-03-03T19:11:50.977Z,11.44
2019-03-03T19:14:28.510Z,11.48
2019-03-03T19:16:58.887Z,11.50
2019-03-03T19:19:32.641Z,11.56
2019-03-03T19:22:04.260Z,11.58
2019-03-03T19:24:37.502Z,11.57
2019-03-03T19:27:12.079Z,11.64
2019-03-03T19:29:45.205Z,11.56
2019-03-03T19:32:16.755Z,11.64
2019-03-03T19:34:48.368Z,11.74
2019-03-03T19:37:20.979Z,11.79
2019-03-03T19:39:54.063Z,11.82
2019-03-03T19:42:26.682Z,11.89
2019-03-03T19:45:02.623Z,11.97
2019-03-03T19:47:37.094Z,12.05
2019-03-03T19:50:13.241Z,12.11
2019-03-03T19:52:47.116Z,12.13
2019-03-03T19:55:23.235Z,12.21
2019-03-03T19:57:54.546Z,12.23
2019-03-03T20:00:35.400Z,12.25
2019-03-03T20:03:03.321Z,12.22
2019-03-03T20:05:34.975Z,12.27
2019-03-03T20:08:07.150Z,12.26
2019-03-03T20:10:38.948Z,12.24
2019-03-03T20:13:10.781Z,12.22
2019-03-03T20:15:42.435Z,12.14
2019-03-03T20:18:16.144Z,12.12
2019-03-03T20:20:50.670Z,12.11
2019-03-03T20:23:34.309Z,12.10
2019-03-03T20:26:11.251Z,12.07
2019-03-03T20:28:43.936Z,12.02
2019-03-03T20:31:15.535Z,12.02
2019-03-03T20:33:51.989Z,12.05
2019-03-03T20:36:25.021Z,12.09
2019-03-03T20:38:56.635Z,12.12
2019-03-03T20:41:28.216Z,12.12
2019-03-03T20:43:59.862Z,12.12
2019-03-03T20:46:31.462Z,12.16
2019-03-03T20:49:04.163Z,12.13
2019-03-03T20:51:37.458Z,12.11
2019-03-03T20:54:09.072Z,12.13
2019-03-03T20:56:46.595Z,12.22
2019-03-03T20:59:28.633Z,12.19
2019-03-03T21:02:00.210Z,12.17
2019-03-03T21:04:36.862Z,12.20
2019-03-03T21:07:10.052Z,12.22
2019-03-03T21:09:43.349Z,12.22
2019-03-03T21:12:14.973Z,12.30
2019-03-03T21:14:46.585Z,12.34
2019-03-03T21:17:20.938Z,12.34
2019-03-03T21:19:56.458Z,12.34
2019-03-03T21:22:31.078Z,12.34
2019-03-03T21:25:06.525Z,12.31
2019-03-03T21:27:40.991Z,12.26
2019-03-03T21:30:21.330Z,12.25
2019-03-03T21:32:58.224Z,12.25
2019-03-03T21:35:31.164Z,12.22
2019-03-03T21:38:04.037Z,12.20
2019-03-03T21:40:35.870Z,12.18
2019-03-03T21:43:09.463Z,12.10
2019-03-03T21:45:46.369Z,12.05
2019-03-03T21:48:17.965Z,12.01
2019-03-03T21:50:52.445Z,11.97
2019-03-03T21:53:26.991Z,11.97
2019-03-03T21:56:00.646Z,11.95
2019-03-03T21:58:32.324Z,11.91
2019-03-03T22:01:03.920Z,11.89
2019-03-03T22:03:35.570Z,11.85
2019-03-03T22:06:07.151Z,11.81
2019-03-03T22:08:38.720Z,11.82
2019-03-03T22:11:12.031Z,11.81
2019-03-03T22:13:46.768Z,11.88
2019-03-03T22:16:20.661Z,11.93
2019-03-03T22:18:52.218Z,11.97
2019-03-03T22:21:23.887Z,11.99
2019-03-03T22:23:56.747Z,12.02
2019-03-03T22:26:31.166Z,12.05
2019-03-03T22:29:02.803Z,12.07
2019-03-03T22:31:34.422Z,12.11
2019-03-03T22:34:07.647Z,12.14
2019-03-03T22:36:39.231Z,12.18
2019-03-03T22:39:17.142Z,12.20
2019-03-03T22:41:48.741Z,12.16
2019-03-03T22:44:22.422Z,12.16
2019-03-03T22:46:58.183Z,12.13
2019-03-03T22:49:32.772Z,12.12
2019-03-03T22:52:05.446Z,12.14
2019-03-03T22:54:49.520Z,12.14
2019-03-03T22:57:22.703Z,12.17
2019-03-03T22:59:54.321Z,12.16
2019-03-03T23:02:26.411Z,12.16
2019-03-03T23:05:35.716Z,12.16
2019-03-03T23:08:28.796Z,12.10
2019-03-03T23:11:52.373Z,12.07
2019-03-03T23:15:17.160Z,12.00
2019-03-03T23:18:47.765Z,11.89
2019-03-03T23:21:42.952Z,11.82
2019-03-03T23:25:29.444Z,11.79
2019-03-03T23:28:08.365Z,11.74
2019-03-03T23:30:44.633Z,11.64
2019-03-03T23:33:18.511Z,11.58
2019-03-03T23:35:51.884Z,11.53
2019-03-03T23:38:23.475Z,11.50
2019-03-03T23:40:58.560Z,11.46
2019-03-03T23:43:30.146Z,11.41
2019-03-03T23:46:06.795Z,11.37
2019-03-03T23:48:46.627Z,11.30
2019-03-03T23:51:19.954Z,11.30
2019-03-03T23:53:53.618Z,11.29
2019-03-03T23:56:25.172Z,11.19
2019-03-03T23:58:56.767Z,11.18
